Asaba International Airport

DNAS · Delta, Nigeria

Storia di METAR DNAS · Asaba International Airport

Di seguito sono riportati i METAR degli ultimi giorni. Seleziona un anno per sfogliare i METAR più vecchi, dall'anno 2007 in poi.

9 dicembre 2022

Tempo Codice Tempo metereologico Temp. Vista Base nuvolosa Vento METAR/SPECI
09:00
V
26 °C 8 km - Var 000° 0 kt METAR DNEN 090800Z 00000KT 8000 NSC 26/23 Q1014 NOSIG
09:00
V
26 °C 8 km - Var 000° 0 kt METAR DNEN 090800Z 00000KT 8000 NSC 26/23 Q1014 NOSIG
08:00
V
20 °C 8 km - Var 000° 0 kt METAR DNEN 090700Z 00000KT 8000 NSC 20/16 Q1013 NOSIG
06:00
V
21 °C 8 km - Var 000° 0 kt METAR DNEN 090500Z 00000KT 8000 NSC 21/17 Q1012 TEMPO 5000 HZ
05:00
V
22 °C 8 km - Var 000° 0 kt METAR DNEN 090400Z 00000KT 8000 NSC 22/17 Q1012 NOSIG
03:00
V
23 °C 8 km - 020° 020° 8 kt METAR DNEN 090200Z 02008KT 8000 NSC 23/16 Q1011 NOSIG
02:00
V
23 °C 8 km - 230° 230° 5 kt METAR DNEN 090100Z 23005KT 8000 NSC 23/18 Q1012 NOSIG

8 dicembre 2022

Tempo Codice Tempo metereologico Temp. Vista Base nuvolosa Vento METAR/SPECI
21:00
V
27 °C 8 km - Var 000° 0 kt METAR DNEN 082000Z 00000KT 8000 FEW011 27/18 Q1012 NOSIG
17:00
V
34 °C 10 km+ - 250° 250° 10 kt METAR DNEN 081600Z 25010KT CAVOK 34/18 Q1009 NOSIG
15:00
V
35 °C 10 km+ - 040° 040° 12 kt METAR DNEN 081400Z 04012KT 9999 NSC 35/17 Q1009 NOSIG
14:00
V
34 °C 10 km+ - 060° 060° 7 kt METAR DNEN 081300Z 06007KT 9999 FEW015 34/18 Q1010 NOSIG
12:00
V
33 °C 10 km+ - 120° 120° 9 kt METAR DNEN 081100Z 12009KT 9999 SCT014 33/21 Q1012 NOSIG
11:00
V
31 °C 10 km+ - 060° 060° 5 kt METAR DNEN 081000Z 06005KT 9999 SCT013 31/24 Q1012 NOSIG
08:00
I
24 °C 4 km - Var 000° 0 kt METAR DNEN 080700Z 00000KT 4000 HZ FEW009 24/22 Q1012 BECMG 7000
05:00
M
24 °C 7 km 1.100 ft Var 000° 0 kt METAR DNEN 080400Z 00000KT 7000 BKN011 24/22 Q1011 NOSIG

7 dicembre 2022

Tempo Codice Tempo metereologico Temp. Vista Base nuvolosa Vento METAR/SPECI
23:00
M
26 °C 7 km - Var 000° 0 kt METAR DNEN 072200Z 00000KT 7000 NSC 26/22 Q1012 NOSIG
21:00
M
26 °C 7 km - Var Var 2 kt METAR DNEN 072000Z VRB02KT 7000 NSC 26/20 Q1011 NOSIG
20:00
M
29 °C 7 km - Var 000° 0 kt METAR DNEN 071900Z 00000KT 7000 NSC 29/22 Q1010 NOSIG
18:00
V
32 °C 8 km - 050° 050° 6 kt METAR DNEN 071700Z 05006KT 8000 FEW015 32/20 Q1009 NOSIG
15:00
V
34 °C 8 km - 330° 330° 3 kt METAR DNEN 071400Z 33003KT 8000 FEW015 34/19 Q1009 NOSIG
14:00
V
34 °C 8 km - 030° 030° 5 kt METAR DNEN 071300Z 03005KT 8000 SCT014 34/21 Q1010 NOSIG
12:00
M
30 °C 7 km 1.300 ft 060° 060° 6 kt METAR DNEN 071100Z 06006KT 7000 BKN013 30/25 Q1011 NOSIG
11:00
M
29 °C 7 km 1.100 ft 300° 300° 5 kt METAR DNEN 071000Z 30005KT 7000 BKN011 29/25 Q1012 NOSIG
09:00
I
25 °C 2 km - 240° 240° 3 kt METAR DNEN 070800Z 24003KT 2000 HZ SCT010 25/24 Q1012 NOSIG
08:00
L
23 °C 1 km - 150° 150° 3 kt METAR DNEN 070700Z 15003KT 1000 BR SCT 23/23 Q1012 BECMG 1500
07:00
I
23 °C 3 km - 080° 080° 3 kt METAR DNEN 070600Z 08003KT 3000 HZ NSC 23/21 Q1010 NOSIG
06:00
M
25 °C 7 km - Var Var 2 kt METAR DNEN 070500Z VRB02KT 7000 FEW010 25/22 Q1009 NOSIG
04:00
M
25 °C 7 km - Var 000° 0 kt METAR DNEN 070300Z 00000KT 7000 FEW010 25/23 Q1010 NOSIG
01:00
M
26 °C 7 km - Var 000° 0 kt METAR DNEN 070000Z 00000KT 7000 FEW010 26/22 Q1011 NOSIG
00:00
M
27 °C 7 km - 210° 210° 5 kt METAR DNEN 062300Z 21005KT 7000 FEW011 27/21 Q1011 NOSIG

6 dicembre 2022

Tempo Codice Tempo metereologico Temp. Vista Base nuvolosa Vento METAR/SPECI
23:00
M
27 °C 7 km - 210° 210° 3 kt METAR DNEN 062200Z 21003KT 7000 FEW011 27/21 Q1011 NOSIG
21:00
V
28 °C 8 km - Var 000° 0 kt METAR DNEN 062000Z 00000KT 8000 NSC 28/19 Q1010 NOSIG
20:00
V
29 °C 8 km - Var 000° 0 kt METAR DNEN 061900Z 00000KT 8000 NSC 29/22 Q1009 NOSIG
14:00
V
36 °C 10 km+ - 120° 120° 6 kt METAR DNEN 061300Z 12006KT 9999 FEW014 36/14 Q1009 NOSIG

Noi e le terze parti seguiamo il tuo comportamento su internet con i cookie. Se continui, riteniamo che tu sia d'accordo con la nostra Politica sui cookie.